Latest Weather Observations for Kalumburu

IDW60801

Issued at 8:02 am WST Thursday 5 March 2015 (issued every 30 minutes, with the page automatically refreshed every 10 minutes)

About weather observations | Map of weather stations | Latest weather observations for WA | Other Formats
Station Details ID: 001019 Name: KALUMBURU Lat: -14.30 Lon: 126.65 Height: 23.0 m
Data from the previous 72 hours. | See also: Recent months at Kalumburu
Date/Time
WST
Temp
°C
App
Temp
°C
Dew
Point
Rel
Hum
%
Delta-T
°C
Wind Press
QNH
hPa
Press
MSL
hPa
Rain
since 9 am
mm
Dir
 
Spd
km/h
Gust
km/h
Spd
kts
Gust
kts
05/08:00am 28.0 32.9 24.6 82 2.4 S 7 13 4 7 1010.0 1009.8 0.4
05/07:30am 27.0 31.9 24.6 87 1.7 S 7 9 4 5 1009.8 1009.6 0.4
05/07:00am 25.9 30.8 24.3 91 1.1 S 6 9 3 5 1009.6 1009.4 0.4
05/06:30am 25.4 30.0 23.8 91 1.1 SSE 6 11 3 6 1009.1 1008.9 0.4
05/06:00am 25.2 30.1 23.6 91 1.1 SSW 4 6 2 3 1008.7 1008.5 0.4
05/05:30am 25.0 30.1 23.4 91 1.1 SSE 2 7 1 4 1008.3 1008.1 0.4
05/05:00am 25.1 29.9 23.5 91 1.1 SW 4 7 2 4 1007.7 1007.5 0.4
05/04:30am 25.2 30.8 23.6 91 1.1 CALM 0 7 0 4 1008.0 1007.8 0.4
05/04:00am 25.2 29.7 23.6 91 1.1 SE 6 7 3 4 1008.3 1008.1 0.4
05/03:30am 24.8 30.1 23.0 90 1.2 CALM 0 0 0 0 1008.2 1008.0 0.4
05/03:00am 24.9 30.3 23.3 91 1.1 CALM 0 0 0 0 1008.1 1007.9 0.4
05/02:30am 25.0 30.4 23.2 90 1.2 CALM 0 0 0 0 1008.4 1008.2 0.4
05/02:00am 24.9 30.2 23.1 90 1.2 CALM 0 0 0 0 1008.2 1008.0 0.4
05/01:30am 25.0 30.4 23.2 90 1.2 CALM 0 0 0 0 1007.7 1007.5 0.4
05/01:00am 25.1 30.5 23.3 90 1.2 CALM 0 0 0 0 1007.5 1007.3 0.4
05/12:30am 25.2 30.7 23.4 90 1.2 CALM 0 0 0 0 1008.2 1008.0 0.4
05/12:00am 25.3 30.9 23.5 90 1.2 CALM 0 0 0 0 1008.6 1008.4 0.4
 
Date/Time
WST
Temp
°C
App
Temp
°C
Dew
Point
Rel
Hum
%
Delta-T
°C
Wind Press
QNH
hPa
Press
MSL
hPa
Rain
since 9 am
mm
Dir
 
Spd
km/h
Gust
km/h
Spd
kts
Gust
kts
04/11:30pm 25.4 31.0 23.6 90 1.2 CALM 0 0 0 0 1009.0 1008.8 0.4
04/11:00pm 25.6 31.2 23.6 89 1.4 CALM 0 6 0 3 1009.2 1009.0 0.4
04/10:30pm 25.9 31.7 23.9 89 1.4 CALM 0 0 0 0 1009.7 1009.5 0.4
04/10:00pm 26.2 32.2 24.2 89 1.4 CALM 0 0 0 0 1009.7 1009.5 0.4
04/09:30pm 26.3 32.3 24.3 89 1.4 CALM 0 0 0 0 1009.7 1009.5 0.4
04/09:00pm 26.6 32.8 24.6 89 1.4 CALM 0 0 0 0 1009.8 1009.6 0.4
04/08:30pm 26.4 32.5 24.4 89 1.4 CALM 0 0 0 0 1009.7 1009.5 0.4
04/08:00pm 26.3 32.3 24.3 89 1.4 CALM 0 0 0 0 1009.5 1009.3 0.4
04/07:30pm 26.3 32.3 24.2 88 1.4 CALM 0 0 0 0 1009.1 1008.9 0.4
04/07:00pm 26.6 32.7 24.4 88 1.5 CALM 0 0 0 0 1008.5 1008.3 0.4
04/06:30pm 26.7 32.8 24.5 88 1.5 CALM 0 0 0 0 1008.0 1007.8 0.4
04/06:00pm 26.8 31.7 24.3 86 1.7 S 6 7 3 4 1007.6 1007.4 0.4
04/05:30pm 27.3 32.6 24.4 84 2.0 WSW 4 9 2 5 1007.5 1007.3 0.4
04/05:00pm 27.7 32.8 24.7 84 2.1 NW 6 11 3 6 1007.2 1007.0 0.4
04/04:30pm 27.5 33.3 25.1 87 1.7 WSW 4 7 2 4 1006.4 1006.2 0.4
04/04:00pm 27.0 32.1 24.6 87 1.7 E 6 9 3 5 1006.5 1006.3 0.4
04/03:30pm 27.2 32.1 24.6 86 1.8 SSE 7 11 4 6 1006.5 1006.3 0.4
04/03:00pm 28.0 33.0 24.8 83 2.2 NNE 7 11 4 6 1006.2 1006.0 0.4
04/02:30pm 28.8 32.1 23.9 75 3.4 NNW 13 20 7 11 1005.4 1005.2 0.4
04/02:00pm 31.8 35.2 23.3 60 5.9 NNW 11 17 6 9 1005.9 1005.7 0.4
04/01:30pm 30.6 34.3 24.5 70 4.3 NNW 13 20 7 11 1005.8 1005.6 0.4
04/01:00pm 29.3 34.4 26.1 83 2.3 N 11 20 6 11 1006.3 1006.1 0.4
04/12:30pm 29.0 34.3 24.3 76 3.3 ENE 4 13 2 7 1006.9 1006.7 0.4
04/12:00pm 31.0 34.8 23.4 64 5.3 NW 9 17 5 9 1006.9 1006.7 0.4
04/11:30am 30.4 33.7 23.8 68 4.6 NNW 13 19 7 10 1007.4 1007.2 0.4
04/11:00am 31.1 34.6 24.2 66 4.8 N 13 19 7 10 1007.6 1007.4 0.0
04/10:30am 31.3 35.5 23.4 63 5.5 NW 7 9 4 5 1007.9 1007.7 0.0
04/10:00am 30.9 34.3 23.3 64 5.2 NW 11 19 6 10 1008.1 1007.9 0.0
04/09:30am 30.7 34.9 23.1 64 5.2 WSW 6 9 3 5 1008.3 1008.1 0.0
04/09:00am 30.2 35.6 23.9 69 4.4 NW 2 7 1 4 1008.5 1008.3 27.2
04/08:30am 29.2 34.8 24.3 75 3.4 SSW 2 7 1 4 1008.7 1008.5 27.2
04/08:00am 28.3 32.6 24.3 79 2.8 SSE 9 11 5 6 1008.4 1008.2 27.0
04/07:30am 27.7 32.7 24.5 83 2.2 S 6 9 3 5 1008.2 1008.0 27.0
04/07:00am 26.7 32.8 24.5 88 1.5 CALM 0 0 0 0 1007.6 1007.4 27.0
04/06:30am 25.9 31.5 24.3 91 1.1 WSW 2 6 1 3 1007.3 1007.1 27.0
04/06:00am 25.3 31.0 23.7 91 1.1 CALM 0 0 0 0 1007.0 1006.8 27.0
04/05:30am 25.2 29.7 23.6 91 1.1 SSW 6 9 3 5 1006.7 1006.5 27.0
04/05:00am 25.0 29.7 23.4 91 1.1 E 4 6 2 3 1006.6 1006.4 27.0
04/04:30am 24.7 29.9 22.9 90 1.2 CALM 0 0 0 0 1005.7 1005.5 27.0
04/04:00am 24.8 30.1 23.0 90 1.2 CALM 0 0 0 0 1005.6 1005.4 27.0
04/03:30am 25.0 30.0 23.2 90 1.2 WSW 2 6 1 3 1005.7 1005.5 27.0
04/03:00am 25.0 30.1 23.4 91 1.1 WSW 2 6 1 3 1005.6 1005.4 27.0
04/02:30am 24.9 30.0 23.3 91 1.1 SSW 2 7 1 4 1005.8 1005.6 27.0
04/02:00am 24.8 30.1 23.0 90 1.2 CALM 0 0 0 0 1005.7 1005.5 27.0
04/01:30am 24.9 30.2 23.1 90 1.2 CALM 0 7 0 4 1006.0 1005.8 27.0
04/01:00am 24.8 30.1 23.0 90 1.2 CALM 0 0 0 0 1006.3 1006.1 27.0
04/12:30am 24.8 30.1 23.0 90 1.2 CALM 0 0 0 0 1006.5 1006.3 27.0
04/12:00am 24.6 29.8 22.8 90 1.2 CALM 0 0 0 0 1006.5 1006.3 27.0
 
Date/Time
WST
Temp
°C
App
Temp
°C
Dew
Point
Rel
Hum
%
Delta-T
°C
Wind Press
QNH
hPa
Press
MSL
hPa
Rain
since 9 am
mm
Dir
 
Spd
km/h
Gust
km/h
Spd
kts
Gust
kts
03/11:30pm 24.7 29.9 22.9 90 1.2 CALM 0 0 0 0 1006.7 1006.5 27.0
03/11:00pm 24.6 29.8 22.8 90 1.2 CALM 0 0 0 0 1007.1 1006.9 27.0
03/10:30pm 24.6 29.8 22.8 90 1.2 CALM 0 0 0 0 1007.2 1007.0 27.0
03/10:00pm 24.7 29.9 22.9 90 1.2 CALM 0 0 0 0 1007.5 1007.3 27.0
03/09:30pm 24.9 30.2 23.1 90 1.2 CALM 0 0 0 0 1007.6 1007.4 27.0
03/09:00pm 25.0 30.4 23.2 90 1.2 CALM 0 0 0 0 1007.4 1007.2 27.0
03/08:30pm 24.8 28.9 23.0 90 1.2 ESE 6 7 3 4 1007.0 1006.8 27.0
03/08:00pm 24.9 30.2 23.1 90 1.2 CALM 0 0 0 0 1006.5 1006.3 27.0
03/07:30pm 24.9 29.5 23.1 90 1.2 SE 4 6 2 3 1006.0 1005.8 27.0
03/07:00pm 25.0 30.3 23.1 89 1.3 CALM 0 0 0 0 1005.5 1005.3 27.0
03/06:30pm 25.1 29.3 23.2 89 1.3 NW 6 7 3 4 1005.3 1005.1 27.0
03/06:00pm 25.1 30.5 23.2 89 1.3 CALM 0 0 0 0 1005.1 1004.9 27.0
03/05:30pm 25.1 30.4 23.0 88 1.4 CALM 0 6 0 3 1005.1 1004.9 27.0
03/05:00pm 25.1 29.2 23.0 88 1.4 SSW 6 9 3 5 1004.7 1004.5 26.6
03/04:30pm 25.0 28.3 22.5 86 1.7 S 9 13 5 7 1004.1 1003.9 26.6
03/04:00pm 25.3 28.6 22.6 85 1.8 SSE 9 13 5 7 1004.2 1004.0 26.4
03/03:30pm 25.3 28.2 22.4 84 1.9 S 11 17 6 9 1004.6 1004.4 26.4
03/03:00pm 25.1 28.2 22.2 84 1.9 S 9 13 5 7 1005.0 1004.8 26.4
03/02:30pm 24.8 27.5 22.1 85 1.8 S 11 17 6 9 1005.2 1005.0 26.4
03/02:00pm 24.6 27.1 22.5 88 1.4 S 13 20 7 11 1005.4 1005.2 26.4
03/01:30pm 24.3 27.2 22.4 89 1.3 S 11 17 6 9 1005.7 1005.5 26.2
03/01:00pm 23.7 27.1 22.0 90 1.1 S 7 11 4 6 1006.1 1005.9 26.0
03/12:30pm 23.5 26.8 21.8 90 1.1 SE 7 9 4 5 1006.9 1006.7 24.4
03/12:00pm 23.3 26.0 21.4 89 1.3 N 9 11 5 6 1007.5 1007.3 18.4
03/11:30am 23.7 27.0 21.4 87 1.5 WSW 6 11 3 6 1007.4 1007.2 12.0
03/11:00am 24.0 27.2 21.7 87 1.5 S 7 15 4 8 1007.8 1007.6 8.4
03/10:30am 24.3 27.3 22.0 87 1.5 SSW 9 13 5 7 1007.8 1007.6 7.4
03/10:00am 23.9 28.5 21.8 88 1.4 CALM 0 6 0 3 1008.6 1008.4 7.4
03/09:30am 23.4 26.3 21.7 90 1.1 S 9 11 5 6 1008.7 1008.5 6.2
03/09:00am 23.6 27.0 21.7 89 1.3 SSE 6 7 3 4 1009.1 1008.9 18.8
03/08:30am 23.5 26.7 21.6 89 1.3 SSE 7 11 4 6 1009.0 1008.8 14.8
03/08:00am 23.6 26.4 21.5 88 1.4 SSE 9 17 5 9 1009.1 1008.9 11.6
03/07:30am 23.8 27.1 21.9 89 1.3 SSE 7 11 4 6 1008.5 1008.3 10.2
03/07:00am 23.7 26.5 21.6 88 1.4 S 9 13 5 7 1008.2 1008.0 10.2
03/06:30am 23.9 26.7 21.6 87 1.5 SSW 9 15 5 8 1008.0 1007.8 9.4
03/06:00am 23.9 26.2 21.4 86 1.7 S 11 19 6 10 1007.9 1007.7 9.2
03/05:30am 24.7 27.4 22.2 86 1.7 SSE 11 17 6 9 1007.9 1007.7 7.4
03/05:00am 25.5 29.3 23.4 88 1.4 S 9 13 5 7 1007.3 1007.1 6.2
03/04:30am 25.8 30.7 23.7 88 1.4 SE 4 9 2 5 1007.0 1006.8 4.2
03/04:00am 26.1 31.1 23.8 87 1.6 SE 4 6 2 3 1005.8 1005.6 2.4
03/03:30am 26.3 30.7 23.8 86 1.7 ENE 7 11 4 6 1005.7 1005.5 1.2
03/03:00am 26.8 31.8 23.9 84 2.0 SSW 4 7 2 4 1005.3 1005.1 0.2
03/02:30am 26.5 31.2 23.4 83 2.1 SSE 4 7 2 4 1004.6 1004.4 0.2
03/02:00am 26.5 30.3 22.8 80 2.5 SE 7 11 4 6 1004.6 1004.4 0.2
03/01:30am 27.0 30.9 23.0 79 2.7 SW 7 13 4 7 1004.7 1004.5 0.2
03/01:00am 27.0 31.3 23.7 82 2.3 SSW 7 11 4 6 1005.4 1005.2 0.2
03/12:30am 27.6 31.8 23.4 78 2.9 SSW 7 11 4 6 1005.3 1005.1 0.2
03/12:00am 28.1 31.2 23.5 76 3.2 SSW 13 28 7 15 1005.4 1005.2 0.2
 
Date/Time
WST
Temp
°C
App
Temp
°C
Dew
Point
Rel
Hum
%
Delta-T
°C
Wind Press
QNH
hPa
Press
MSL
hPa
Rain
since 9 am
mm
Dir
 
Spd
km/h
Gust
km/h
Spd
kts
Gust
kts
02/11:30pm 29.2 33.9 24.3 75 3.4 SW 7 13 4 7 1005.9 1005.7 0.2
02/11:00pm 29.1 34.2 24.6 76 3.1 SSW 6 9 3 5 1005.8 1005.6 0.2
02/10:30pm 29.2 34.3 24.7 77 3.1 SW 6 11 3 6 1005.5 1005.3 0.2
02/10:00pm 28.9 34.9 24.9 79 2.8 WSW 2 7 1 4 1005.7 1005.5 0.2
02/09:30pm 29.2 35.3 25.0 78 2.9 W 2 7 1 4 1006.2 1006.0 0.2
02/09:00pm 29.3 35.4 25.1 78 3.0 NW 2 6 1 3 1006.5 1006.3 0.2
02/08:30pm 29.7 35.3 24.8 75 3.4 WSW 4 11 2 6 1006.0 1005.8 0.2
02/08:00pm 29.9 34.6 24.3 72 3.9 WNW 7 15 4 8 1005.4 1005.2 0.2
02/07:30pm 30.0 34.8 24.2 71 4.0 NW 6 9 3 5 1005.0 1004.8 0.2
02/07:00pm 30.2 35.0 24.1 70 4.3 WNW 6 7 3 4 1004.4 1004.2 0.2
02/06:30pm 30.8 34.9 24.0 67 4.7 WNW 9 13 5 7 1003.6 1003.4 0.2
02/06:00pm 31.2 35.1 24.3 66 4.8 NW 11 15 6 8 1003.2 1003.0 0.2
02/05:30pm 31.5 35.8 24.9 68 4.6 NW 11 17 6 9 1002.8 1002.6 0.2
02/05:00pm 32.4 36.4 25.0 65 5.2 WNW 13 20 7 11 1002.5 1002.3 0.2
02/04:30pm 33.3 37.4 24.5 60 6.2 NW 11 19 6 10 1002.3 1002.1 0.2
02/04:00pm 33.3 37.1 24.7 60 6.1 NW 13 17 7 9 1002.3 1002.1 0.2
02/03:30pm 33.1 36.3 23.1 55 6.9 NNW 11 15 6 8 1002.5 1002.3 0.2
02/03:00pm 35.1 40.0 23.1 49 8.4 SW 2 7 1 4 1002.7 1002.5 0.2
02/02:30pm 34.8 38.3 22.2 48 8.6 SSW 7 11 4 6 1003.0 1002.8 0.2
02/02:00pm 34.5 38.2 22.6 50 8.2 SSW 7 11 4 6 1003.3 1003.1 0.2
02/01:30pm 34.5 38.4 22.9 51 8.0 S 7 11 4 6 1003.6 1003.4 0.2
02/01:00pm 34.0 38.2 23.1 53 7.6 SW 6 13 3 7 1004.2 1004.0 0.2
02/12:30pm 33.5 36.8 22.6 53 7.5 S 9 13 5 7 1004.7 1004.5 0.2
02/12:00pm 32.6 36.3 23.3 58 6.5 SW 9 13 5 7 1005.1 1004.9 0.2
02/11:30am 32.3 36.5 23.5 59 6.1 SSW 7 11 4 6 1005.6 1005.4 0.2
02/11:00am 31.9 35.8 22.9 59 6.2 SSW 7 13 4 7 1006.1 1005.9 0.2
02/10:30am 31.3 35.2 22.9 61 5.8 S 7 11 4 6 1006.5 1006.3 0.2
02/10:00am 30.6 34.7 23.3 65 5.0 SSW 7 13 4 7 1007.0 1006.8 0.2
02/09:30am 30.0 35.2 24.2 71 4.0 SW 4 9 2 5 1007.1 1006.9 0.2
02/09:00am 29.1 33.9 24.2 75 3.4 SW 6 9 3 5 1007.6 1007.4 26.2
02/08:30am 28.2 32.5 23.6 76 3.2 S 7 13 4 7 1007.7 1007.5 26.2

Other Formats:

Comma delimited format used in spreadsheet applications
http://www.bom.gov.au/fwo/IDW60801/IDW60801.94100.axf

JavaScript Object Notation format (JSON) in row-major order
http://www.bom.gov.au/fwo/IDW60801/IDW60801.94100.json